sensor_id;sensor_type;location;lat;lon;timestamp;pressure;altitude;pressure_sealevel;temperature;humidity
3122;BME280;1571;52.524;14.104;2023-04-01T00:00:08;99282.94;;;8.52;100.00
3122;BME280;1571;52.524;14.104;2023-04-01T00:02:40;99279.13;;;8.57;100.00
3122;BME280;1571;52.524;14.104;2023-04-01T00:05:09;99283.06;;;8.62;100.00
3122;BME280;1571;52.524;14.104;2023-04-01T00:07:40;99277.94;;;8.61;100.00
3122;BME280;1571;52.524;14.104;2023-04-01T00:10:10;99283.78;;;8.53;100.00
3122;BME280;1571;52.524;14.104;2023-04-01T00:12:39;99276.22;;;8.48;100.00
3122;BME280;1571;52.524;14.104;2023-04-01T00:15:10;99276.56;;;8.55;100.00
3122;BME280;1571;52.524;14.104;2023-04-01T00:17:39;99280.06;;;8.55;100.00
3122;BME280;1571;52.524;14.104;2023-04-01T00:20:08;99280.06;;;8.67;100.00
3122;BME280;1571;52.524;14.104;2023-04-01T00:22:36;99282.38;;;8.60;100.00
3122;BME280;1571;52.524;14.104;2023-04-01T00:25:06;99278.50;;;8.53;100.00
3122;BME280;1571;52.524;14.104;2023-04-01T00:27:35;99277.66;;;8.52;100.00
3122;BME280;1571;52.524;14.104;2023-04-01T00:30:04;99281.84;;;8.44;100.00
3122;BME280;1571;52.524;14.104;2023-04-01T00:32:33;99274.09;;;8.65;100.00
3122;BME280;1571;52.524;14.104;2023-04-01T00:35:02;99276.22;;;8.60;100.00
3122;BME280;1571;52.524;14.104;2023-04-01T00:37:30;99273.50;;;8.26;100.00
3122;BME280;1571;52.524;14.104;2023-04-01T00:39:58;99279.06;;;8.34;100.00
3122;BME280;1571;52.524;14.104;2023-04-01T00:42:28;99283.91;;;8.40;100.00
3122;BME280;1571;52.524;14.104;2023-04-01T00:44:56;99280.91;;;8.45;100.00
3122;BME280;1571;52.524;14.104;2023-04-01T00:47:26;99277.66;;;8.41;100.00
3122;BME280;1571;52.524;14.104;2023-04-01T00:49:55;99277.13;;;8.36;100.00
3122;BME280;1571;52.524;14.104;2023-04-01T00:52:25;99282.19;;;8.39;100.00
3122;BME280;1571;52.524;14.104;2023-04-01T00:54:57;99284.09;;;8.37;100.00
3122;BME280;1571;52.524;14.104;2023-04-01T00:57:31;99283.59;;;8.32;100.00
3122;BME280;1571;52.524;14.104;2023-04-01T01:00:00;99279.81;;;8.47;100.00
3122;BME280;1571;52.524;14.104;2023-04-01T01:02:30;99274.16;;;8.41;100.00
3122;BME280;1571;52.524;14.104;2023-04-01T01:04:59;99277.34;;;8.33;100.00
3122;BME280;1571;52.524;14.104;2023-04-01T01:07:33;99276.22;;;8.48;100.00
3122;BME280;1571;52.524;14.104;2023-04-01T01:10:08;99280.19;;;8.54;100.00
3122;BME280;1571;52.524;14.104;2023-04-01T01:12:45;99275.00;;;8.41;100.00
3122;BME280;1571;52.524;14.104;2023-04-01T01:15:19;99273.50;;;8.37;100.00
3122;BME280;1571;52.524;14.104;2023-04-01T01:17:53;99275.31;;;8.37;100.00
3122;BME280;1571;52.524;14.104;2023-04-01T01:20:34;99277.13;;;8.36;100.00
3122;BME280;1571;52.524;14.104;2023-04-01T01:23:23;99276.31;;;8.36;100.00
3122;BME280;1571;52.524;14.104;2023-04-01T01:26:09;99276.22;;;8.48;100.00
3122;BME280;1571;52.524;14.104;2023-04-01T01:28:52;99282.59;;;8.46;100.00
3122;BME280;1571;52.524;14.104;2023-04-01T01:31:30;99279.88;;;8.34;100.00
3122;BME280;1571;52.524;14.104;2023-04-01T01:34:11;99276.88;;;8.39;100.00
3122;BME280;1571;52.524;14.104;2023-04-01T01:36:45;99282.63;;;8.33;100.00
3122;BME280;1571;52.524;14.104;2023-04-01T01:39:17;99293.00;;;8.36;100.00
3122;BME280;1571;52.524;14.104;2023-04-01T01:41:47;99284.88;;;8.50;100.00
3122;BME280;1571;52.524;14.104;2023-04-01T01:44:17;99290.75;;;8.43;100.00
3122;BME280;1571;52.524;14.104;2023-04-01T01:46:47;99288.44;;;8.38;100.00
3122;BME280;1571;52.524;14.104;2023-04-01T01:49:17;99292.69;;;8.41;100.00
3122;BME280;1571;52.524;14.104;2023-04-01T01:51:48;99295.81;;;8.46;100.00
3122;BME280;1571;52.524;14.104;2023-04-01T01:54:17;99294.97;;;8.45;100.00
3122;BME280;1571;52.524;14.104;2023-04-01T01:56:48;99288.22;;;8.41;100.00
3122;BME280;1571;52.524;14.104;2023-04-01T01:59:20;99293.00;;;8.36;100.00
3122;BME280;1571;52.524;14.104;2023-04-01T02:01:50;99287.47;;;8.39;100.00
3122;BME280;1571;52.524;14.104;2023-04-01T02:04:21;99288.78;;;8.33;100.00
3122;BME280;1571;52.524;14.104;2023-04-01T02:06:56;99292.44;;;8.44;100.00
3122;BME280;1571;52.524;14.104;2023-04-01T02:09:27;99293.47;;;8.30;100.00
3122;BME280;1571;52.524;14.104;2023-04-01T02:11:58;99299.38;;;8.33;100.00
3122;BME280;1571;52.524;14.104;2023-04-01T02:14:39;99303.47;;;8.38;100.00
3122;BME280;1571;52.524;14.104;2023-04-01T02:17:11;99298.75;;;8.30;100.00
3122;BME280;1571;52.524;14.104;2023-04-01T02:19:47;99303.75;;;8.22;100.00
3122;BME280;1571;52.524;14.104;2023-04-01T02:22:20;99304.16;;;8.40;100.00
3122;BME280;1571;52.524;14.104;2023-04-01T02:24:52;99317.94;;;8.45;100.00
3122;BME280;1571;52.524;14.104;2023-04-01T02:27:21;99302.44;;;8.51;100.00
3122;BME280;1571;52.524;14.104;2023-04-01T02:29:50;99311.47;;;8.60;100.00
3122;BME280;1571;52.524;14.104;2023-04-01T02:32:19;99316.78;;;8.60;100.00
3122;BME280;1571;52.524;14.104;2023-04-01T02:34:48;99317.31;;;8.41;100.00
3122;BME280;1571;52.524;14.104;2023-04-01T02:37:18;99317.81;;;8.58;100.00
3122;BME280;1571;52.524;14.104;2023-04-01T02:39:46;99313.63;;;8.55;100.00
3122;BME280;1571;52.524;14.104;2023-04-01T02:42:15;99314.22;;;8.47;100.00
3122;BME280;1571;52.524;14.104;2023-04-01T02:44:43;99318.44;;;8.26;100.00
3122;BME280;1571;52.524;14.104;2023-04-01T02:47:11;99321.13;;;8.37;100.00
3122;BME280;1571;52.524;14.104;2023-04-01T02:49:40;99322.63;;;8.52;100.00
3122;BME280;1571;52.524;14.104;2023-04-01T02:52:08;99329.19;;;8.36;100.00
3122;BME280;1571;52.524;14.104;2023-04-01T02:54:38;99336.16;;;8.37;100.00
3122;BME280;1571;52.524;14.104;2023-04-01T02:57:06;99329.78;;;8.39;100.00
3122;BME280;1571;52.524;14.104;2023-04-01T02:59:35;99336.25;;;8.35;100.00
3122;BME280;1571;52.524;14.104;2023-04-01T03:02:03;99342.09;;;8.40;100.00
3122;BME280;1571;52.524;14.104;2023-04-01T03:04:31;99342.09;;;8.40;100.00
3122;BME280;1571;52.524;14.104;2023-04-01T03:06:59;99348.03;;;8.31;100.00
3122;BME280;1571;52.524;14.104;2023-04-01T03:09:28;99344.44;;;8.32;100.00
3122;BME280;1571;52.524;14.104;2023-04-01T03:11:58;99350.69;;;8.31;100.00
3122;BME280;1571;52.524;14.104;2023-04-01T03:14:27;99360.69;;;8.39;100.00
3122;BME280;1571;52.524;14.104;2023-04-01T03:16:56;99357.97;;;8.40;100.00
3122;BME280;1571;52.524;14.104;2023-04-01T03:19:24;99357.84;;;8.53;100.00
3122;BME280;1571;52.524;14.104;2023-04-01T03:21:53;99349.25;;;8.38;100.00
3122;BME280;1571;52.524;14.104;2023-04-01T03:24:21;99351.78;;;8.40;100.00
3122;BME280;1571;52.524;14.104;2023-04-01T03:26:50;99353.41;;;8.42;100.00
3122;BME280;1571;52.524;14.104;2023-04-01T03:29:20;99357.25;;;8.49;100.00
3122;BME280;1571;52.524;14.104;2023-04-01T03:31:49;99351.34;;;8.46;100.00
3122;BME280;1571;52.524;14.104;2023-04-01T03:34:17;99346.72;;;8.37;100.00
3122;BME280;1571;52.524;14.104;2023-04-01T03:36:45;99351.63;;;8.30;100.00
3122;BME280;1571;52.524;14.104;2023-04-01T03:39:13;99355.84;;;8.32;100.00
3122;BME280;1571;52.524;14.104;2023-04-01T03:41:45;99359.84;;;8.38;100.00
3122;BME280;1571;52.524;14.104;2023-04-01T03:44:14;99363.00;;;8.43;100.00
3122;BME280;1571;52.524;14.104;2023-04-01T03:46:46;99364.97;;;8.64;100.00
3122;BME280;1571;52.524;14.104;2023-04-01T03:49:17;99361.75;;;8.71;100.00
3122;BME280;1571;52.524;14.104;2023-04-01T03:51:45;99344.53;;;8.54;100.00
3122;BME280;1571;52.524;14.104;2023-04-01T03:54:13;99361.16;;;8.68;100.00
3122;BME280;1571;52.524;14.104;2023-04-01T03:56:43;99355.06;;;8.43;100.00
3122;BME280;1571;52.524;14.104;2023-04-01T03:59:12;99359.94;;;8.37;100.00
3122;BME280;1571;52.524;14.104;2023-04-01T04:01:40;99355.38;;;8.39;100.00
3122;BME280;1571;52.524;14.104;2023-04-01T04:04:11;99365.09;;;8.27;100.00
3122;BME280;1571;52.524;14.104;2023-04-01T04:06:41;99363.25;;;8.40;100.00
3122;BME280;1571;52.524;14.104;2023-04-01T04:09:10;99374.00;;;8.37;100.00
3122;BME280;1571;52.524;14.104;2023-04-01T04:11:38;99374.97;;;8.36;100.00
3122;BME280;1571;52.524;14.104;2023-04-01T04:14:06;99386.38;;;8.61;100.00
3122;BME280;1571;52.524;14.104;2023-04-01T04:16:35;99380.94;;;8.51;100.00
3122;BME280;1571;52.524;14.104;2023-04-01T04:19:04;99376.25;;;8.54;100.00
3122;BME280;1571;52.524;14.104;2023-04-01T04:21:34;99377.91;;;8.44;100.00
3122;BME280;1571;52.524;14.104;2023-04-01T04:24:03;99376.47;;;8.40;100.00
3122;BME280;1571;52.524;14.104;2023-04-01T04:26:51;99379.59;;;8.21;100.00
3122;BME280;1571;52.524;14.104;2023-04-01T04:29:19;99386.44;;;8.24;100.00
3122;BME280;1571;52.524;14.104;2023-04-01T04:31:50;99390.09;;;8.34;100.00
3122;BME280;1571;52.524;14.104;2023-04-01T04:34:18;99393.50;;;8.60;100.00
3122;BME280;1571;52.524;14.104;2023-04-01T04:36:49;99389.28;;;8.69;100.00
3122;BME280;1571;52.524;14.104;2023-04-01T04:39:19;99392.06;;;8.67;100.00
3122;BME280;1571;52.524;14.104;2023-04-01T04:41:48;99385.19;;;8.65;100.00
3122;BME280;1571;52.524;14.104;2023-04-01T04:44:17;99373.66;;;8.66;100.00
3122;BME280;1571;52.524;14.104;2023-04-01T04:46:45;99372.91;;;8.64;100.00
3122;BME280;1571;52.524;14.104;2023-04-01T04:49:15;99372.81;;;8.65;100.00
3122;BME280;1571;52.524;14.104;2023-04-01T04:51:43;99379.19;;;8.63;100.00
3122;BME280;1571;52.524;14.104;2023-04-01T04:54:15;99382.38;;;8.55;100.00
3122;BME280;1571;52.524;14.104;2023-04-01T04:56:51;99384.13;;;8.67;100.00
3122;BME280;1571;52.524;14.104;2023-04-01T04:59:20;99386.63;;;8.69;100.00
3122;BME280;1571;52.524;14.104;2023-04-01T05:01:56;99384.69;;;8.60;100.00
3122;BME280;1571;52.524;14.104;2023-04-01T05:04:25;99393.81;;;8.55;100.00
3122;BME280;1571;52.524;14.104;2023-04-01T05:06:53;99399.75;;;8.70;100.00
3122;BME280;1571;52.524;14.104;2023-04-01T05:09:24;99400.09;;;8.66;100.00
3122;BME280;1571;52.524;14.104;2023-04-01T05:11:52;99400.13;;;8.77;100.00
3122;BME280;1571;52.524;14.104;2023-04-01T05:14:21;99404.22;;;8.81;100.00
3122;BME280;1571;52.524;14.104;2023-04-01T05:16:59;99396.69;;;8.99;100.00
3122;BME280;1571;52.524;14.104;2023-04-01T05:19:27;99399.22;;;9.01;100.00
3122;BME280;1571;52.524;14.104;2023-04-01T05:21:56;99393.41;;;8.95;100.00
3122;BME280;1571;52.524;14.104;2023-04-01T05:24:25;99394.19;;;8.62;100.00
3122;BME280;1571;52.524;14.104;2023-04-01T05:26:53;99401.06;;;8.65;100.00
3122;BME280;1571;52.524;14.104;2023-04-01T05:29:24;99406.59;;;8.73;100.00
3122;BME280;1571;52.524;14.104;2023-04-01T05:31:58;99412.13;;;8.70;100.00
3122;BME280;1571;52.524;14.104;2023-04-01T05:34:28;99419.88;;;8.95;100.00
3122;BME280;1571;52.524;14.104;2023-04-01T05:36:56;99421.78;;;8.82;100.00
3122;BME280;1571;52.524;14.104;2023-04-01T05:39:25;99424.19;;;8.74;100.00
3122;BME280;1571;52.524;14.104;2023-04-01T05:41:54;99429.00;;;8.80;100.00
3122;BME280;1571;52.524;14.104;2023-04-01T05:44:22;99428.81;;;8.94;100.00
3122;BME280;1571;52.524;14.104;2023-04-01T05:47:19;99431.38;;;8.72;100.00
3122;BME280;1571;52.524;14.104;2023-04-01T05:49:48;99431.44;;;8.83;100.00
3122;BME280;1571;52.524;14.104;2023-04-01T05:52:16;99438.69;;;9.15;100.00
3122;BME280;1571;52.524;14.104;2023-04-01T05:54:46;99440.59;;;9.02;100.00
3122;BME280;1571;52.524;14.104;2023-04-01T05:57:14;99437.81;;;8.92;100.00
3122;BME280;1571;52.524;14.104;2023-04-01T05:59:43;99445.91;;;9.02;100.00
3122;BME280;1571;52.524;14.104;2023-04-01T06:02:12;99445.66;;;9.05;100.00
3122;BME280;1571;52.524;14.104;2023-04-01T06:04:42;99438.44;;;9.07;100.00
3122;BME280;1571;52.524;14.104;2023-04-01T06:07:11;99450.00;;;9.06;100.00
3122;BME280;1571;52.524;14.104;2023-04-01T06:09:40;99456.38;;;9.03;100.00
3122;BME280;1571;52.524;14.104;2023-04-01T06:15:20;99453.56;;;8.93;100.00
3122;BME280;1571;52.524;14.104;2023-04-01T06:18:02;99463.84;;;9.21;100.00
3122;BME280;1571;52.524;14.104;2023-04-01T06:20:42;99469.25;;;9.08;100.00
3122;BME280;1571;52.524;14.104;2023-04-01T06:23:33;99465.19;;;9.15;100.00
3122;BME280;1571;52.524;14.104;2023-04-01T06:26:14;99464.34;;;9.14;100.00
3122;BME280;1571;52.524;14.104;2023-04-01T06:29:16;99465.94;;;9.40;100.00
3122;BME280;1571;52.524;14.104;2023-04-01T06:32:01;99466.50;;;9.32;100.00
3122;BME280;1571;52.524;14.104;2023-04-01T06:34:47;99468.31;;;9.43;100.00
3122;BME280;1571;52.524;14.104;2023-04-01T06:37:26;99462.09;;;9.32;100.00
3122;BME280;1571;52.524;14.104;2023-04-01T06:42:58;99467.19;;;9.00;100.00
3122;BME280;1571;52.524;14.104;2023-04-01T06:46:09;99470.94;;;9.09;100.00
3122;BME280;1571;52.524;14.104;2023-04-01T06:49:37;99475.41;;;9.20;100.00
3122;BME280;1571;52.524;14.104;2023-04-01T06:52:41;99478.13;;;8.95;100.00
3122;BME280;1571;52.524;14.104;2023-04-01T06:55:52;99485.28;;;9.17;100.00
3122;BME280;1571;52.524;14.104;2023-04-01T06:58:50;99482.59;;;9.06;100.00
3122;BME280;1571;52.524;14.104;2023-04-01T07:01:24;99492.75;;;9.12;100.00
3122;BME280;1571;52.524;14.104;2023-04-01T07:03:57;99488.00;;;9.05;100.00
3122;BME280;1571;52.524;14.104;2023-04-01T07:06:31;99488.34;;;9.00;100.00
3122;BME280;1571;52.524;14.104;2023-04-01T07:09:05;99492.44;;;8.93;100.00
3122;BME280;1571;52.524;14.104;2023-04-01T07:11:53;99497.78;;;8.80;100.00
3122;BME280;1571;52.524;14.104;2023-04-01T07:15:04;99498.28;;;8.74;100.00
3122;BME280;1571;52.524;14.104;2023-04-01T07:17:36;99499.84;;;8.52;100.00
3122;BME280;1571;52.524;14.104;2023-04-01T07:20:13;99504.00;;;8.44;100.00
3122;BME280;1571;52.524;14.104;2023-04-01T07:22:44;99507.72;;;8.41;100.00
3122;BME280;1571;52.524;14.104;2023-04-01T07:25:28;99515.81;;;8.27;100.00
3122;BME280;1571;52.524;14.104;2023-04-01T07:28:18;99521.94;;;8.14;100.00
3122;BME280;1571;52.524;14.104;2023-04-01T07:31:03;99527.63;;;8.34;100.00
3122;BME280;1571;52.524;14.104;2023-04-01T07:33:39;99539.72;;;8.12;100.00
3122;BME280;1571;52.524;14.104;2023-04-01T07:36:13;99539.13;;;8.09;100.00
3122;BME280;1571;52.524;14.104;2023-04-01T07:38:52;99538.81;;;8.01;100.00
3122;BME280;1571;52.524;14.104;2023-04-01T07:41:51;99542.19;;;7.90;100.00
3122;BME280;1571;52.524;14.104;2023-04-01T07:44:28;99546.72;;;8.13;100.00
3122;BME280;1571;52.524;14.104;2023-04-01T07:47:14;99555.47;;;8.14;100.00
3122;BME280;1571;52.524;14.104;2023-04-01T07:49:55;99547.84;;;8.22;100.00
3122;BME280;1571;52.524;14.104;2023-04-01T07:52:38;99555.38;;;8.16;100.00
3122;BME280;1571;52.524;14.104;2023-04-01T07:55:23;99554.72;;;8.25;100.00
3122;BME280;1571;52.524;14.104;2023-04-01T07:58:03;99556.78;;;8.08;100.00
3122;BME280;1571;52.524;14.104;2023-04-01T08:00:42;99554.03;;;7.97;100.00
3122;BME280;1571;52.524;14.104;2023-04-01T08:03:35;99560.13;;;8.10;100.00
3122;BME280;1571;52.524;14.104;2023-04-01T08:06:14;99566.16;;;8.12;100.00
3122;BME280;1571;52.524;14.104;2023-04-01T08:08:53;99556.03;;;8.06;100.00
3122;BME280;1571;52.524;14.104;2023-04-01T08:11:52;99573.06;;;8.15;100.00
3122;BME280;1571;52.524;14.104;2023-04-01T08:15:07;99579.41;;;8.00;100.00
3122;BME280;1571;52.524;14.104;2023-04-01T08:18:02;99577.34;;;8.29;100.00
3122;BME280;1571;52.524;14.104;2023-04-01T08:20:37;99576.34;;;7.93;100.00
3122;BME280;1571;52.524;14.104;2023-04-01T08:23:12;99580.13;;;8.14;100.00
3122;BME280;1571;52.524;14.104;2023-04-01T08:25:48;99581.50;;;8.07;100.00
3122;BME280;1571;52.524;14.104;2023-04-01T08:28:24;99588.00;;;7.90;100.00
3122;BME280;1571;52.524;14.104;2023-04-01T08:30:58;99595.03;;;7.90;100.00
3122;BME280;1571;52.524;14.104;2023-04-01T08:33:30;99590.16;;;8.22;100.00
3122;BME280;1571;52.524;14.104;2023-04-01T08:36:09;99584.38;;;8.04;100.00
3122;BME280;1571;52.524;14.104;2023-04-01T08:38:44;99593.59;;;7.86;100.00
3122;BME280;1571;52.524;14.104;2023-04-01T08:41:39;99599.91;;;7.96;100.00
3122;BME280;1571;52.524;14.104;2023-04-01T08:44:42;99596.84;;;8.02;100.00
3122;BME280;1571;52.524;14.104;2023-04-01T08:47:24;99601.72;;;7.96;100.00
3122;BME280;1571;52.524;14.104;2023-04-01T08:53:27;99608.16;;;8.04;100.00
3122;BME280;1571;52.524;14.104;2023-04-01T08:56:12;99602.75;;;8.19;100.00
3122;BME280;1571;52.524;14.104;2023-04-01T08:58:57;99601.25;;;8.27;100.00
3122;BME280;1571;52.524;14.104;2023-04-01T09:01:46;99606.63;;;8.26;100.00
3122;BME280;1571;52.524;14.104;2023-04-01T09:04:59;99602.09;;;8.28;100.00
3122;BME280;1571;52.524;14.104;2023-04-01T09:07:40;99596.47;;;8.32;100.00
3122;BME280;1571;52.524;14.104;2023-04-01T09:10:39;99587.06;;;8.28;100.00
3122;BME280;1571;52.524;14.104;2023-04-01T09:13:59;99578.63;;;8.23;100.00
3122;BME280;1571;52.524;14.104;2023-04-01T09:16:56;99586.03;;;8.18;100.00
3122;BME280;1571;52.524;14.104;2023-04-01T09:19:37;99593.66;;;8.23;100.00
3122;BME280;1571;52.524;14.104;2023-04-01T09:22:22;99588.13;;;8.26;100.00
3122;BME280;1571;52.524;14.104;2023-04-01T09:25:08;99576.72;;;8.12;100.00
3122;BME280;1571;52.524;14.104;2023-04-01T09:27:47;99587.66;;;7.95;100.00
3122;BME280;1571;52.524;14.104;2023-04-01T09:30:32;99592.22;;;7.93;100.00
3122;BME280;1571;52.524;14.104;2023-04-01T09:33:23;99581.81;;;8.16;100.00
3122;BME280;1571;52.524;14.104;2023-04-01T09:36:04;99582.84;;;8.26;100.00
3122;BME280;1571;52.524;14.104;2023-04-01T09:38:47;99588.69;;;8.18;100.00
3122;BME280;1571;52.524;14.104;2023-04-01T09:41:30;99584.16;;;8.57;100.00
3122;BME280;1571;52.524;14.104;2023-04-01T09:44:14;99582.19;;;8.35;100.00
3122;BME280;1571;52.524;14.104;2023-04-01T09:47:11;99588.09;;;8.39;100.00
3122;BME280;1571;52.524;14.104;2023-04-01T09:50:13;99582.75;;;8.14;100.00
3122;BME280;1571;52.524;14.104;2023-04-01T09:52:53;99580.91;;;8.53;100.00
3122;BME280;1571;52.524;14.104;2023-04-01T09:56:15;99587.72;;;8.19;100.00
3122;BME280;1571;52.524;14.104;2023-04-01T09:59:21;99592.53;;;7.88;100.00
3122;BME280;1571;52.524;14.104;2023-04-01T10:02:59;99597.91;;;7.87;100.00
3122;BME280;1571;52.524;14.104;2023-04-01T10:05:56;99593.31;;;8.14;100.00
3122;BME280;1571;52.524;14.104;2023-04-01T10:09:01;99593.78;;;8.08;100.00
3122;BME280;1571;52.524;14.104;2023-04-01T10:15:26;99603.72;;;7.92;100.00
3122;BME280;1571;52.524;14.104;2023-04-01T10:18:18;99603.09;;;7.76;100.00
3122;BME280;1571;52.524;14.104;2023-04-01T10:21:07;99591.31;;;8.18;100.00
3122;BME280;1571;52.524;14.104;2023-04-01T10:24:18;99596.69;;;8.29;100.00
3122;BME280;1571;52.524;14.104;2023-04-01T10:27:21;99593.50;;;8.37;100.00
3122;BME280;1571;52.524;14.104;2023-04-01T10:30:42;99592.16;;;8.19;100.00
3122;BME280;1571;52.524;14.104;2023-04-01T10:33:56;99590.19;;;8.09;100.00
3122;BME280;1571;52.524;14.104;2023-04-01T10:36:52;99593.88;;;8.20;100.00
3122;BME280;1571;52.524;14.104;2023-04-01T10:39:34;99598.75;;;8.00;100.00
3122;BME280;1571;52.524;14.104;2023-04-01T10:42:43;99595.78;;;8.18;100.00
3122;BME280;1571;52.524;14.104;2023-04-01T10:46:17;99603.72;;;7.92;100.00
3122;BME280;1571;52.524;14.104;2023-04-01T10:49:06;99595.59;;;7.95;100.00
3122;BME280;1571;52.524;14.104;2023-04-01T10:51:58;99602.56;;;7.70;100.00
3122;BME280;1571;52.524;14.104;2023-04-01T10:54:59;99613.22;;;7.69;100.00
3122;BME280;1571;52.524;14.104;2023-04-01T10:58:30;99620.31;;;7.81;100.00
3122;BME280;1571;52.524;14.104;2023-04-01T11:01:50;99619.47;;;7.81;100.00
3122;BME280;1571;52.524;14.104;2023-04-01T11:05:33;99631.13;;;7.25;100.00
3122;BME280;1571;52.524;14.104;2023-04-01T11:11:54;99635.53;;;7.52;100.00
3122;BME280;1571;52.524;14.104;2023-04-01T11:18:02;99637.31;;;7.64;100.00
3122;BME280;1571;52.524;14.104;2023-04-01T11:20:49;99637.75;;;7.71;100.00
3122;BME280;1571;52.524;14.104;2023-04-01T11:23:38;99642.06;;;7.72;100.00
3122;BME280;1571;52.524;14.104;2023-04-01T11:26:33;99633.94;;;7.62;100.00
3122;BME280;1571;52.524;14.104;2023-04-01T11:29:39;99632.13;;;7.50;100.00
3122;BME280;1571;52.524;14.104;2023-04-01T11:32:57;99636.78;;;7.59;100.00
3122;BME280;1571;52.524;14.104;2023-04-01T11:35:42;99639.31;;;7.48;100.00
3122;BME280;1571;52.524;14.104;2023-04-01T11:38:26;99645.22;;;7.39;100.00
3122;BME280;1571;52.524;14.104;2023-04-01T11:41:37;99654.47;;;7.32;100.00
3122;BME280;1571;52.524;14.104;2023-04-01T11:44:28;99657.84;;;7.34;100.00
3122;BME280;1571;52.524;14.104;2023-04-01T11:47:37;99654.75;;;7.14;100.00
3122;BME280;1571;52.524;14.104;2023-04-01T11:50:17;99668.28;;;7.22;100.00
3122;BME280;1571;52.524;14.104;2023-04-01T11:53:00;99667.19;;;7.12;100.00
3122;BME280;1571;52.524;14.104;2023-04-01T11:55:40;99683.31;;;7.35;100.00
3122;BME280;1571;52.524;14.104;2023-04-01T11:58:24;99680.69;;;7.07;100.00
3122;BME280;1571;52.524;14.104;2023-04-01T12:01:15;99677.25;;;7.20;100.00
3122;BME280;1571;52.524;14.104;2023-04-01T12:06:43;99682.34;;;7.23;100.00
3122;BME280;1571;52.524;14.104;2023-04-01T12:09:19;99679.25;;;7.16;100.00
3122;BME280;1571;52.524;14.104;2023-04-01T12:12:01;99684.31;;;7.19;100.00
3122;BME280;1571;52.524;14.104;2023-04-01T12:14:39;99677.91;;;7.36;100.00
3122;BME280;1571;52.524;14.104;2023-04-01T12:17:22;99688.75;;;7.46;100.00
3122;BME280;1571;52.524;14.104;2023-04-01T12:19:59;99673.69;;;7.34;100.00
3122;BME280;1571;52.524;14.104;2023-04-01T12:22:43;99675.34;;;7.22;100.00
3122;BME280;1571;52.524;14.104;2023-04-01T12:25:22;99682.47;;;7.34;100.00
3122;BME280;1571;52.524;14.104;2023-04-01T12:28:04;99685.13;;;7.34;100.00
3122;BME280;1571;52.524;14.104;2023-04-01T12:30:43;99689.53;;;7.34;100.00
3122;BME280;1571;52.524;14.104;2023-04-01T12:33:34;99692.47;;;7.29;100.00
3122;BME280;1571;52.524;14.104;2023-04-01T12:36:19;99691.84;;;7.25;100.00
3122;BME280;1571;52.524;14.104;2023-04-01T12:39:20;99700.75;;;7.10;100.00
3122;BME280;1571;52.524;14.104;2023-04-01T12:41:55;99705.38;;;7.06;100.00
3122;BME280;1571;52.524;14.104;2023-04-01T12:44:37;99704.09;;;7.26;100.00
3122;BME280;1571;52.524;14.104;2023-04-01T12:47:19;99727.00;;;6.99;100.00
3122;BME280;1571;52.524;14.104;2023-04-01T12:50:15;99720.72;;;6.87;100.00
3122;BME280;1571;52.524;14.104;2023-04-01T12:52:58;99733.09;;;6.99;100.00
3122;BME280;1571;52.524;14.104;2023-04-01T12:55:38;99738.41;;;6.71;100.00
3122;BME280;1571;52.524;14.104;2023-04-01T12:58:54;99749.31;;;6.93;100.00
3122;BME280;1571;52.524;14.104;2023-04-01T13:01:45;99752.84;;;6.79;100.00
3122;BME280;1571;52.524;14.104;2023-04-01T13:04:44;99755.94;;;6.57;100.00
3122;BME280;1571;52.524;14.104;2023-04-01T13:10:21;99774.97;;;6.77;100.00
3122;BME280;1571;52.524;14.104;2023-04-01T13:13:08;99769.78;;;6.75;100.00
3122;BME280;1571;52.524;14.104;2023-04-01T13:15:41;99766.22;;;6.76;100.00
3122;BME280;1571;52.524;14.104;2023-04-01T13:18:22;99774.03;;;6.63;100.00
3122;BME280;1571;52.524;14.104;2023-04-01T13:21:00;99777.69;;;6.75;100.00
3122;BME280;1571;52.524;14.104;2023-04-01T13:23:36;99779.97;;;6.81;100.00
3122;BME280;1571;52.524;14.104;2023-04-01T13:26:13;99775.44;;;6.83;100.00
3122;BME280;1571;52.524;14.104;2023-04-01T13:28:51;99784.13;;;6.85;100.00
3122;BME280;1571;52.524;14.104;2023-04-01T13:31:30;99784.22;;;6.70;100.00
3122;BME280;1571;52.524;14.104;2023-04-01T13:34:15;99792.69;;;6.75;100.00
3122;BME280;1571;52.524;14.104;2023-04-01T13:36:56;99800.88;;;6.70;100.00
3122;BME280;1571;52.524;14.104;2023-04-01T13:39:37;99786.47;;;6.61;100.00
3122;BME280;1571;52.524;14.104;2023-04-01T13:42:22;99791.19;;;6.42;100.00
3122;BME280;1571;52.524;14.104;2023-04-01T13:44:56;99786.06;;;6.39;100.00
3122;BME280;1571;52.524;14.104;2023-04-01T13:47:41;99794.25;;;6.34;100.00
3122;BME280;1571;52.524;14.104;2023-04-01T13:50:31;99803.75;;;6.37;100.00
3122;BME280;1571;52.524;14.104;2023-04-01T13:53:30;99818.66;;;6.38;100.00
3122;BME280;1571;52.524;14.104;2023-04-01T13:56:14;99811.59;;;6.38;100.00
3122;BME280;1571;52.524;14.104;2023-04-01T13:59:02;99819.00;;;6.17;100.00
3122;BME280;1571;52.524;14.104;2023-04-01T14:01:39;99838.91;;;6.37;100.00
3122;BME280;1571;52.524;14.104;2023-04-01T14:04:27;99827.97;;;6.43;100.00
3122;BME280;1571;52.524;14.104;2023-04-01T14:07:07;99836.28;;;6.37;100.00
3122;BME280;1571;52.524;14.104;2023-04-01T14:09:59;99839.81;;;6.22;100.00
3122;BME280;1571;52.524;14.104;2023-04-01T14:12:31;99847.34;;;6.28;100.00
3122;BME280;1571;52.524;14.104;2023-04-01T14:15:16;99854.03;;;6.19;100.00
3122;BME280;1571;52.524;14.104;2023-04-01T14:18:02;99854.50;;;6.26;100.00
3122;BME280;1571;52.524;14.104;2023-04-01T14:20:38;99857.84;;;6.14;100.00
3122;BME280;1571;52.524;14.104;2023-04-01T14:23:24;99857.22;;;6.24;100.00
3122;BME280;1571;52.524;14.104;2023-04-01T14:26:09;99864.75;;;6.00;100.00
3122;BME280;1571;52.524;14.104;2023-04-01T14:28:45;99876.00;;;6.04;100.00
3122;BME280;1571;52.524;14.104;2023-04-01T14:31:29;99878.09;;;6.13;100.00
3122;BME280;1571;52.524;14.104;2023-04-01T14:34:09;99879.34;;;6.22;100.00
3122;BME280;1571;52.524;14.104;2023-04-01T14:36:49;99878.97;;;6.28;100.00
3122;BME280;1571;52.524;14.104;2023-04-01T14:39:46;99885.00;;;6.00;100.00
3122;BME280;1571;52.524;14.104;2023-04-01T14:42:37;99888.56;;;6.15;100.00
3122;BME280;1571;52.524;14.104;2023-04-01T14:45:25;99897.56;;;6.11;100.00